Time;durP1;ratioP1;P1;durP2;ratioP2;P2;SDS_P1;SDS_P2;PMS_P1;PMS_P2;Temp;Humidity;BMP_temperature;BMP_pressure;BME280_temperature;BME280_humidity;BME280_pressure;Samples;Min_cycle;Max_cycle;Signal;HPM_P1;HPM_P2
2021/09/29 00:01:33;;;;;;;12.85;7.20;;;12.00;98.00;;;;;;5073334;28;20013;-69
2021/09/29 00:03:59;;;;;;;9.98;6.10;;;12.00;98.00;;;;;;5070806;28;20044;-69
2021/09/29 00:06:24;;;;;;;13.00;7.60;;;12.00;98.00;;;;;;5069068;28;20036;-69
2021/09/29 00:08:53;;;;;;;12.88;6.43;;;12.00;98.00;;;;;;5075908;28;20075;-70
2021/09/29 00:11:22;;;;;;;9.50;6.30;;;12.10;98.00;;;;;;5066435;28;20104;-70
2021/09/29 00:13:47;;;;;;;10.05;7.07;;;12.10;98.00;;;;;;5075857;28;20071;-69
2021/09/29 00:16:15;;;;;;;15.80;9.15;;;12.20;98.00;;;;;;5074239;28;20028;-70
2021/09/29 00:18:41;;;;;;;17.15;9.27;;;12.20;98.00;;;;;;5071833;28;20064;-69
2021/09/29 00:21:08;;;;;;;16.77;9.00;;;12.20;98.00;;;;;;5063150;28;20048;-70
2021/09/29 00:23:34;;;;;;;16.30;9.65;;;12.10;98.00;;;;;;5067291;28;20032;-70
2021/09/29 00:26:01;;;;;;;12.52;7.78;;;12.10;98.00;;;;;;5068585;28;20048;-70
2021/09/29 00:28:26;;;;;;;16.35;8.93;;;12.10;98.00;;;;;;5067116;28;20033;-69
2021/09/29 00:31:02;;;;;;;15.88;9.75;;;12.10;98.00;;;;;;5073816;28;20111;-69
2021/09/29 00:33:28;;;;;;;16.75;9.85;;;12.00;98.00;;;;;;5072683;28;20111;-70
2021/09/29 00:35:54;;;;;;;19.52;11.23;;;12.10;98.00;;;;;;5075527;28;20016;-70
2021/09/29 00:38:20;;;;;;;15.40;9.90;;;12.10;98.00;;;;;;5071208;28;20409;-69
2021/09/29 00:40:45;;;;;;;21.83;11.15;;;12.10;98.00;;;;;;5073823;28;20028;-69
2021/09/29 00:43:11;;;;;;;16.85;10.25;;;12.20;98.00;;;;;;5071638;28;20033;-69
2021/09/29 00:45:37;;;;;;;15.13;9.75;;;12.20;98.00;;;;;;5073512;28;20060;-69
2021/09/29 00:48:03;;;;;;;15.93;10.23;;;12.20;98.00;;;;;;5066790;28;20040;-69
2021/09/29 00:50:28;;;;;;;14.82;9.07;;;12.20;98.00;;;;;;5072295;28;20028;-69
2021/09/29 00:52:55;;;;;;;19.15;10.02;;;12.10;98.00;;;;;;5070167;28;20029;-70
2021/09/29 00:55:28;;;;;;;14.48;9.05;;;12.00;98.00;;;;;;5070454;28;20024;-70
2021/09/29 00:57:53;;;;;;;13.98;8.60;;;11.90;98.00;;;;;;5069922;28;20322;-70
2021/09/29 01:00:19;;;;;;;15.32;9.50;;;11.80;98.00;;;;;;5071962;28;20025;-70
2021/09/29 01:02:45;;;;;;;17.65;9.88;;;11.80;98.00;;;;;;5074040;28;20032;-70
2021/09/29 01:05:12;;;;;;;17.35;9.27;;;11.80;97.80;;;;;;5070966;28;20032;-70
2021/09/29 01:07:50;;;;;;;16.25;9.02;;;11.80;97.50;;;;;;5072823;28;20054;-70
2021/09/29 01:10:22;;;;;;;17.90;9.93;;;11.80;97.50;;;;;;5077034;28;20336;-67
2021/09/29 01:13:07;;;;;;;15.32;9.82;;;11.90;97.30;;;;;;5073396;28;20028;-69
2021/09/29 01:15:43;;;;;;;12.95;8.23;;;12.00;98.00;;;;;;5073873;28;20426;-69
2021/09/29 01:18:10;;;;;;;15.07;8.90;;;11.90;97.90;;;;;;5070669;28;20044;-69
2021/09/29 01:21:01;;;;;;;18.17;9.32;;;11.80;97.80;;;;;;5073503;28;20025;-69
2021/09/29 01:23:50;;;;;;;14.63;8.45;;;11.80;97.40;;;;;;5065431;28;20028;-69
2021/09/29 01:26:19;;;;;;;16.50;9.48;;;11.90;97.70;;;;;;5072822;28;20039;-69
2021/09/29 01:28:55;;;;;;;15.38;9.05;;;11.90;97.90;;;;;;5074133;28;20024;-69
2021/09/29 01:31:23;;;;;;;15.25;9.68;;;11.90;98.00;;;;;;5066254;28;20025;-69
2021/09/29 01:33:50;;;;;;;16.20;10.10;;;12.00;98.00;;;;;;5072512;28;20066;-68
2021/09/29 01:36:18;;;;;;;16.02;9.05;;;12.00;98.00;;;;;;5074160;28;20413;-68
2021/09/29 01:38:49;;;;;;;13.45;9.30;;;12.10;98.00;;;;;;5075097;28;20151;-68
2021/09/29 01:41:15;;;;;;;15.25;9.70;;;12.20;98.00;;;;;;5066846;28;20021;-68
2021/09/29 01:43:40;;;;;;;14.23;8.95;;;12.20;98.00;;;;;;5068480;28;20032;-69
2021/09/29 01:46:06;;;;;;;13.57;9.52;;;12.30;98.00;;;;;;5073733;28;20082;-68
2021/09/29 01:48:40;;;;;;;12.23;8.48;;;12.30;98.00;;;;;;5067889;28;20332;-68
2021/09/29 01:51:09;;;;;;;14.82;8.75;;;12.30;98.00;;;;;;5071884;28;20025;-68
2021/09/29 01:53:36;;;;;;;12.65;8.82;;;12.30;98.00;;;;;;5067151;28;20030;-68
2021/09/29 01:56:02;;;;;;;11.68;7.75;;;12.40;98.00;;;;;;5064051;28;20029;-68
2021/09/29 01:58:33;;;;;;;13.57;8.20;;;12.40;98.00;;;;;;5072829;28;20078;-68
2021/09/29 02:01:00;;;;;;;14.82;7.90;;;12.40;98.00;;;;;;5068914;28;20104;-68
2021/09/29 02:03:26;;;;;;;17.40;8.93;;;12.20;98.00;;;;;;5063647;28;20479;-68
2021/09/29 02:05:52;;;;;;;11.45;7.88;;;12.10;98.00;;;;;;5069760;28;20035;-68
2021/09/29 02:08:18;;;;;;;14.02;8.55;;;12.00;98.00;;;;;;5072187;28;20340;-68
2021/09/29 02:10:44;;;;;;;15.85;9.05;;;11.90;98.00;;;;;;5067749;28;20035;-69
2021/09/29 02:13:10;;;;;;;15.50;8.00;;;11.90;98.00;;;;;;5071744;28;20492;-68
2021/09/29 02:15:37;;;;;;;13.30;7.47;;;12.10;98.00;;;;;;5074789;28;20032;-68
2021/09/29 02:18:02;;;;;;;15.38;7.65;;;12.10;98.00;;;;;;5066054;28;20357;-68
2021/09/29 02:20:28;;;;;;;13.80;7.78;;;12.10;98.00;;;;;;5068010;28;20021;-69
2021/09/29 02:22:54;;;;;;;13.90;6.55;;;12.00;98.00;;;;;;5068103;28;20472;-68
2021/09/29 02:25:20;;;;;;;11.38;7.30;;;11.90;98.00;;;;;;5060713;28;20059;-69
2021/09/29 02:27:46;;;;;;;14.32;8.32;;;11.90;98.00;;;;;;5064370;28;20059;-69
2021/09/29 02:30:12;;;;;;;14.50;6.93;;;11.60;98.00;;;;;;5069489;28;20046;-68
2021/09/29 02:32:39;;;;;;;11.95;7.38;;;11.40;98.00;;;;;;5077144;28;20326;-68
2021/09/29 02:35:07;;;;;;;9.23;6.55;;;11.30;98.00;;;;;;5077843;28;20055;-69
2021/09/29 02:37:33;;;;;;;12.18;7.15;;;11.10;98.00;;;;;;5076384;28;20021;-69
2021/09/29 02:39:58;;;;;;;10.95;6.63;;;11.10;98.00;;;;;;5073642;28;20031;-69
2021/09/29 02:42:24;;;;;;;10.75;6.88;;;10.80;98.00;;;;;;5063912;28;20099;-69
2021/09/29 02:44:50;;;;;;;12.15;7.13;;;10.80;97.70;;;;;;5076798;28;20102;-68
2021/09/29 02:47:16;;;;;;;11.10;6.88;;;10.80;97.50;;;;;;5076025;28;20029;-68
2021/09/29 02:49:42;;;;;;;17.45;8.55;;;10.70;97.90;;;;;;5077542;28;20477;-68
2021/09/29 02:52:07;;;;;;;11.77;7.40;;;10.70;97.70;;;;;;5076680;28;20107;-68
2021/09/29 02:54:33;;;;;;;13.77;8.13;;;10.60;97.30;;;;;;5065914;28;20056;-68
2021/09/29 02:56:58;;;;;;;13.05;7.97;;;10.60;97.10;;;;;;5070728;28;20028;-69
2021/09/29 02:59:24;;;;;;;14.02;7.95;;;10.50;97.60;;;;;;5076330;28;20032;-69
2021/09/29 03:01:50;;;;;;;16.30;7.70;;;10.50;97.10;;;;;;5072834;28;20017;-69
2021/09/29 03:04:15;;;;;;;13.38;7.78;;;10.50;96.70;;;;;;5075256;28;20443;-69
2021/09/29 03:06:44;;;;;;;16.15;8.30;;;10.50;96.70;;;;;;5071172;28;20037;-68
2021/09/29 03:09:09;;;;;;;12.75;7.30;;;10.50;96.60;;;;;;5077473;28;20036;-69
2021/09/29 03:11:35;;;;;;;13.63;7.28;;;10.60;96.20;;;;;;5074370;28;20333;-69
2021/09/29 03:14:01;;;;;;;16.15;7.35;;;10.70;96.20;;;;;;5068879;28;20068;-69
2021/09/29 03:16:26;;;;;;;14.90;7.55;;;10.80;96.00;;;;;;5065316;28;20096;-70
2021/09/29 03:18:54;;;;;;;12.57;7.15;;;11.00;95.90;;;;;;5076292;28;20032;-69
2021/09/29 03:21:20;;;;;;;9.25;5.82;;;11.20;96.30;;;;;;5068051;28;20024;-70
2021/09/29 03:23:46;;;;;;;9.52;6.28;;;11.50;97.10;;;;;;5074610;28;20482;-68
2021/09/29 03:26:11;;;;;;;8.60;5.72;;;11.70;97.40;;;;;;5072114;28;20036;-69
2021/09/29 03:28:37;;;;;;;10.40;6.80;;;11.70;98.00;;;;;;5073292;28;20059;-69
2021/09/29 03:31:03;;;;;;;11.15;7.07;;;11.70;98.00;;;;;;5070215;28;20025;-70
2021/09/29 03:33:28;;;;;;;13.40;6.85;;;11.70;98.00;;;;;;5070352;28;20033;-69
2021/09/29 03:35:54;;;;;;;10.32;6.50;;;11.70;98.00;;;;;;5074552;28;20025;-69
2021/09/29 03:38:20;;;;;;;14.10;7.65;;;11.70;98.00;;;;;;5071193;28;20025;-68
2021/09/29 03:40:45;;;;;;;11.63;7.18;;;11.60;98.00;;;;;;5063012;28;20504;-68
2021/09/29 03:43:11;;;;;;;11.38;6.97;;;11.50;98.00;;;;;;5072433;28;20040;-68
2021/09/29 03:45:37;;;;;;;10.57;6.80;;;11.50;98.00;;;;;;5067205;28;20025;-68
2021/09/29 03:48:03;;;;;;;10.65;6.72;;;11.60;98.00;;;;;;5073399;28;21656;-69
2021/09/29 03:50:29;;;;;;;9.60;6.40;;;11.70;98.00;;;;;;5063059;28;20028;-68
2021/09/29 03:52:54;;;;;;;9.85;6.43;;;11.70;98.00;;;;;;5075234;28;20421;-69
2021/09/29 03:55:22;;;;;;;10.30;6.18;;;11.70;98.00;;;;;;5075495;28;20025;-69
2021/09/29 03:57:48;;;;;;;9.93;5.93;;;11.80;98.00;;;;;;5060247;28;20021;-69
2021/09/29 04:00:14;;;;;;;11.18;7.35;;;11.80;98.00;;;;;;5075450;28;20025;-69
2021/09/29 04:02:40;;;;;;;14.75;8.30;;;11.80;98.00;;;;;;5074065;28;20036;-69
2021/09/29 04:05:07;;;;;;;10.80;7.47;;;11.80;98.00;;;;;;5067650;28;20107;-68
2021/09/29 04:07:33;;;;;;;15.98;8.48;;;11.70;98.00;;;;;;5056396;28;20024;-68
2021/09/29 04:09:59;;;;;;;13.07;8.10;;;11.60;98.00;;;;;;5062581;28;20059;-69
2021/09/29 04:12:25;;;;;;;16.65;8.88;;;11.40;98.00;;;;;;5065253;28;20108;-69
2021/09/29 04:14:52;;;;;;;12.18;8.50;;;11.30;98.00;;;;;;5066367;28;20321;-69
2021/09/29 04:17:18;;;;;;;16.15;9.48;;;11.20;98.00;;;;;;5061696;28;20071;-69
2021/09/29 04:19:45;;;;;;;11.00;7.10;;;11.10;98.00;;;;;;5073610;28;20024;-69
2021/09/29 04:22:12;;;;;;;13.07;7.65;;;11.10;98.00;;;;;;5069273;28;20020;-69
2021/09/29 04:24:38;;;;;;;12.38;6.80;;;11.10;98.00;;;;;;5067480;28;20036;-69
2021/09/29 04:27:06;;;;;;;13.77;7.55;;;11.10;98.00;;;;;;5064437;28;20029;-69
2021/09/29 04:29:32;;;;;;;11.32;5.00;;;11.20;98.00;;;;;;5075768;28;20037;-70
2021/09/29 04:31:58;;;;;;;8.70;4.95;;;11.30;98.00;;;;;;5068483;28;20078;-69
2021/09/29 04:34:23;;;;;;;13.88;6.20;;;11.40;98.00;;;;;;5075047;28;20017;-69
2021/09/29 04:36:49;;;;;;;6.97;3.88;;;11.40;98.00;;;;;;5071915;28;20408;-69
2021/09/29 04:39:15;;;;;;;8.50;3.90;;;11.40;98.00;;;;;;5072715;28;20094;-68
2021/09/29 04:41:41;;;;;;;7.05;4.00;;;11.40;98.00;;;;;;5069233;28;20070;-67
2021/09/29 04:44:07;;;;;;;6.43;3.63;;;11.40;98.00;;;;;;5070489;28;20028;-69
2021/09/29 04:46:33;;;;;;;8.25;3.70;;;11.40;98.00;;;;;;5072841;28;20099;-68
2021/09/29 04:48:59;;;;;;;8.23;4.00;;;11.30;98.00;;;;;;5073059;28;20035;-68
2021/09/29 04:51:25;;;;;;;10.13;3.95;;;11.20;98.00;;;;;;5069484;28;20021;-67
2021/09/29 04:53:50;;;;;;;8.82;4.50;;;11.20;98.00;;;;;;5071476;28;20077;-70
2021/09/29 04:56:16;;;;;;;12.55;4.10;;;11.20;98.00;;;;;;5068749;28;20021;-69
2021/09/29 04:58:43;;;;;;;8.07;4.30;;;11.20;98.00;;;;;;5058410;28;20078;-69
2021/09/29 05:01:12;;;;;;;8.35;4.45;;;11.20;98.00;;;;;;5066366;28;20025;-68
2021/09/29 05:03:38;;;;;;;9.02;4.35;;;11.20;98.00;;;;;;5058272;28;20029;-68
2021/09/29 05:06:04;;;;;;;8.52;3.67;;;11.20;98.00;;;;;;5061024;28;20036;-69
2021/09/29 05:08:34;;;;;;;9.38;4.00;;;11.20;98.00;;;;;;5075276;28;20115;-69
2021/09/29 05:11:14;;;;;;;6.45;3.65;;;11.20;98.00;;;;;;5056810;28;20097;-69
2021/09/29 05:13:40;;;;;;;6.63;3.10;;;11.20;98.00;;;;;;5074868;28;20416;-69
2021/09/29 05:16:05;;;;;;;8.35;4.05;;;11.20;98.00;;;;;;5060311;28;20068;-68
2021/09/29 05:18:33;;;;;;;6.28;3.25;;;11.20;98.00;;;;;;5075399;28;20086;-68
2021/09/29 05:20:58;;;;;;;8.90;3.65;;;11.10;98.00;;;;;;5075283;28;20425;-69
2021/09/29 05:23:24;;;;;;;5.88;3.17;;;11.10;98.00;;;;;;5075513;28;20109;-69
2021/09/29 05:25:53;;;;;;;4.80;2.97;;;11.00;98.00;;;;;;5067661;28;20025;-68
2021/09/29 05:28:26;;;;;;;4.45;2.70;;;11.00;98.00;;;;;;5055512;28;20045;-69
2021/09/29 05:30:52;;;;;;;6.65;2.75;;;10.90;98.00;;;;;;5062661;28;20425;-69
2021/09/29 05:33:19;;;;;;;8.35;2.70;;;10.80;98.00;;;;;;5075467;28;20044;-69
2021/09/29 05:35:45;;;;;;;5.13;2.53;;;10.80;98.00;;;;;;5075305;28;20020;-69
2021/09/29 05:38:10;;;;;;;7.80;3.10;;;10.80;98.00;;;;;;5075486;28;20021;-69
2021/09/29 05:40:36;;;;;;;6.70;2.63;;;10.80;98.00;;;;;;5073056;28;20833;-69
2021/09/29 05:43:02;;;;;;;6.53;2.53;;;10.80;98.00;;;;;;5071359;28;20111;-69
2021/09/29 05:45:28;;;;;;;8.40;3.20;;;10.70;98.00;;;;;;5054507;28;20434;-68
2021/09/29 05:47:53;;;;;;;4.68;2.40;;;10.70;98.00;;;;;;5065770;28;20029;-68
2021/09/29 05:50:19;;;;;;;6.40;2.63;;;10.60;98.00;;;;;;5074388;28;20028;-68
2021/09/29 05:52:45;;;;;;;8.38;2.20;;;10.40;98.00;;;;;;5075957;28;20059;-69
2021/09/29 05:55:13;;;;;;;4.60;1.95;;;10.40;98.00;;;;;;5079501;28;20031;-68
2021/09/29 05:57:38;;;;;;;5.40;1.80;;;10.40;98.00;;;;;;5078482;28;20013;-69
2021/09/29 06:00:06;;;;;;;5.75;2.05;;;10.50;98.00;;;;;;5078937;28;20313;-69
2021/09/29 06:02:31;;;;;;;4.53;1.70;;;10.60;98.00;;;;;;5079202;28;20021;-69
2021/09/29 06:04:57;;;;;;;5.13;1.92;;;10.80;98.00;;;;;;5078447;28;20073;-69
2021/09/29 06:07:23;;;;;;;6.40;1.73;;;10.90;98.00;;;;;;5078863;28;20063;-70
2021/09/29 06:09:49;;;;;;;5.85;1.60;;;10.90;98.00;;;;;;5079528;28;20502;-69
2021/09/29 06:12:14;;;;;;;7.35;1.92;;;11.00;98.00;;;;;;5077886;28;20032;-69
2021/09/29 06:14:43;;;;;;;4.45;1.60;;;11.10;98.00;;;;;;5065509;28;20418;-68
2021/09/29 06:17:27;;;;;;;4.45;1.67;;;11.20;98.00;;;;;;5059124;28;20052;-68
2021/09/29 06:19:54;;;;;;;4.78;1.70;;;11.30;98.00;;;;;;5058993;28;20100;-68
2021/09/29 06:22:21;;;;;;;4.07;1.48;;;11.40;97.80;;;;;;5058965;28;20029;-69
2021/09/29 06:24:48;;;;;;;4.22;1.50;;;11.40;97.20;;;;;;5059108;28;20029;-68
2021/09/29 06:27:13;;;;;;;5.78;1.80;;;11.40;97.90;;;;;;5058398;28;20135;-69
2021/09/29 06:29:39;;;;;;;6.75;2.60;;;11.30;98.00;;;;;;5066150;28;20056;-69
2021/09/29 06:32:05;;;;;;;2.88;1.48;;;11.30;98.00;;;;;;5078784;28;20030;-69
2021/09/29 06:34:32;;;;;;;5.07;1.80;;;11.50;97.60;;;;;;5077467;28;20198;-69
2021/09/29 06:36:57;;;;;;;6.38;1.48;;;11.70;95.90;;;;;;5078869;28;20082;-68
2021/09/29 06:39:23;;;;;;;5.57;1.63;;;11.80;94.70;;;;;;5078603;28;20025;-69
2021/09/29 06:41:52;;;;;;;8.75;1.65;;;12.00;94.40;;;;;;5077568;28;20028;-69
2021/09/29 06:44:24;;;;;;;5.45;1.83;;;12.20;93.30;;;;;;5059448;28;20029;-71
2021/09/29 06:46:50;;;;;;;6.75;1.83;;;12.30;94.40;;;;;;5058586;28;20035;-69
2021/09/29 06:49:16;;;;;;;8.40;1.67;;;12.50;92.30;;;;;;5064690;28;20036;-68
2021/09/29 06:51:41;;;;;;;5.95;1.48;;;12.70;92.40;;;;;;5078252;28;20021;-69
2021/09/29 06:54:07;;;;;;;5.47;1.50;;;12.90;91.90;;;;;;5078393;28;20064;-68
2021/09/29 06:56:33;;;;;;;6.13;1.70;;;13.10;90.60;;;;;;5075959;28;20028;-69
2021/09/29 06:58:59;;;;;;;4.75;1.30;;;13.30;89.40;;;;;;5078226;28;20056;-69
2021/09/29 07:01:24;;;;;;;4.50;1.30;;;13.40;88.50;;;;;;5064520;28;20025;-68
2021/09/29 07:03:50;;;;;;;7.13;1.70;;;13.40;88.60;;;;;;5057924;28;20078;-69
2021/09/29 07:06:17;;;;;;;5.60;1.33;;;13.40;89.00;;;;;;5057206;28;20025;-69
2021/09/29 07:08:42;;;;;;;3.28;1.60;;;13.40;88.40;;;;;;5061557;28;20085;-69
2021/09/29 07:11:08;;;;;;;6.22;1.33;;;13.40;88.70;;;;;;5076715;28;20100;-69
2021/09/29 07:13:35;;;;;;;3.70;0.95;;;13.40;89.50;;;;;;5066739;28;20029;-69
2021/09/29 07:16:02;;;;;;;4.22;1.50;;;13.40;89.10;;;;;;5058037;28;20052;-69
2021/09/29 07:18:30;;;;;;;5.63;1.15;;;13.50;89.00;;;;;;5058627;28;20048;-68
2021/09/29 07:20:57;;;;;;;5.80;1.20;;;13.50;88.00;;;;;;5057941;28;20078;-69
2021/09/29 07:23:22;;;;;;;5.97;1.42;;;13.70;87.00;;;;;;5057804;28;20104;-69
2021/09/29 07:25:48;;;;;;;3.17;1.42;;;13.80;88.10;;;;;;5056648;28;20112;-68
2021/09/29 07:28:14;;;;;;;4.95;1.25;;;13.90;87.10;;;;;;5057819;28;20063;-69
2021/09/29 07:30:42;;;;;;;3.25;1.08;;;14.00;87.50;;;;;;5057745;28;20021;-69
2021/09/29 07:33:08;;;;;;;4.43;1.40;;;14.10;87.40;;;;;;5057819;28;20414;-68
2021/09/29 07:35:34;;;;;;;6.57;1.40;;;14.10;88.00;;;;;;5057525;28;20106;-68
2021/09/29 07:38:01;;;;;;;3.40;1.23;;;14.20;88.80;;;;;;5057667;28;20044;-69
2021/09/29 07:40:28;;;;;;;5.18;1.30;;;14.30;88.80;;;;;;5056357;28;20017;-68
2021/09/29 07:42:57;;;;;;;4.90;1.35;;;14.30;87.70;;;;;;5065117;28;20028;-69
2021/09/29 07:45:23;;;;;;;7.20;1.85;;;14.30;88.30;;;;;;5077632;28;20021;-69
2021/09/29 07:47:49;;;;;;;5.40;1.42;;;14.40;88.50;;;;;;5077406;28;20031;-69
2021/09/29 07:50:16;;;;;;;5.60;1.58;;;14.30;87.90;;;;;;5077016;28;20040;-69
2021/09/29 07:52:43;;;;;;;7.13;1.38;;;14.40;89.10;;;;;;5076693;28;20020;-68
2021/09/29 07:55:10;;;;;;;4.82;1.50;;;14.60;88.60;;;;;;5077452;28;20155;-69
2021/09/29 07:57:36;;;;;;;9.07;1.85;;;14.60;88.30;;;;;;5076090;28;20024;-69
2021/09/29 08:00:04;;;;;;;9.20;1.60;;;14.60;88.00;;;;;;5077276;28;20032;-69
2021/09/29 08:02:29;;;;;;;7.15;1.50;;;14.70;88.20;;;;;;5076251;28;20050;-69
2021/09/29 08:04:59;;;;;;;3.15;1.25;;;14.80;88.60;;;;;;5076424;28;20036;-69
2021/09/29 08:07:25;;;;;;;6.38;1.80;;;15.20;87.50;;;;;;5076721;28;20448;-69
2021/09/29 08:09:50;;;;;;;4.75;1.30;;;16.20;85.30;;;;;;5076840;28;20040;-69
2021/09/29 08:12:16;;;;;;;4.85;1.10;;;17.20;82.20;;;;;;5075830;28;20040;-69
2021/09/29 08:14:42;;;;;;;5.03;1.17;;;17.90;78.50;;;;;;5065119;28;20035;-69
2021/09/29 08:17:07;;;;;;;4.00;1.10;;;18.10;77.90;;;;;;5056277;28;20041;-69
2021/09/29 08:19:34;;;;;;;4.05;1.30;;;18.10;77.10;;;;;;5068321;28;20332;-69
2021/09/29 08:22:04;;;;;;;4.85;1.10;;;17.80;78.50;;;;;;5076728;28;20032;-69
2021/09/29 08:24:41;;;;;;;4.05;1.10;;;18.50;77.40;;;;;;5072801;28;20229;-69
2021/09/29 08:27:15;;;;;;;4.97;1.10;;;18.90;75.50;;;;;;5055454;28;20025;-69
2021/09/29 08:30:06;;;;;;;3.50;1.00;;;18.80;75.10;;;;;;5056638;28;20107;-69
2021/09/29 08:35:13;;;;;;;5.90;1.45;;;19.10;73.90;;;;;;5068939;28;20083;-69
2021/09/29 08:37:46;;;;;;;2.38;1.08;;;19.30;73.80;;;;;;5059196;28;20024;-68
2021/09/29 08:45:57;;;;;;;4.93;1.08;;;18.70;75.90;;;;;;5047256;28;20037;-69
2021/09/29 09:15:58;;;;;;;2.97;1.00;;;15.80;83.10;;;;;;5056268;28;20051;-69
2021/09/29 09:18:24;;;;;;;3.55;1.33;;;15.60;84.40;;;;;;5059200;28;20460;-69
2021/09/29 09:21:03;;;;;;;7.25;1.88;;;15.70;84.50;;;;;;5075758;28;20078;-70
2021/09/29 09:23:37;;;;;;;3.25;1.20;;;15.80;84.30;;;;;;5075780;28;20032;-70
2021/09/29 09:26:17;;;;;;;3.33;1.20;;;15.90;83.30;;;;;;5074507;28;20106;-70
2021/09/29 09:28:43;;;;;;;6.53;1.23;;;15.80;83.00;;;;;;5076148;28;20104;-70
2021/09/29 09:31:15;;;;;;;4.57;1.27;;;15.90;82.30;;;;;;5075576;28;20028;-70
2021/09/29 09:33:55;;;;;;;5.22;1.10;;;16.60;79.60;;;;;;5075704;28;20135;-69
2021/09/29 09:36:37;;;;;;;4.05;0.90;;;17.30;77.00;;;;;;5056294;28;20029;-70
2021/09/29 09:39:14;;;;;;;4.18;1.10;;;17.00;78.20;;;;;;5055129;28;20040;-69
2021/09/29 09:41:56;;;;;;;6.05;1.45;;;16.50;78.60;;;;;;5054333;28;20047;-69
2021/09/29 09:44:36;;;;;;;4.57;1.08;;;16.30;81.10;;;;;;5055642;28;20380;-69
2021/09/29 09:47:08;;;;;;;3.90;1.02;;;17.00;80.30;;;;;;5074490;28;20021;-69
2021/09/29 09:49:52;;;;;;;2.58;1.10;;;18.10;77.10;;;;;;5075010;28;20060;-69
2021/09/29 09:52:44;;;;;;;3.92;0.95;;;17.70;76.60;;;;;;5058968;28;20028;-69
2021/09/29 09:55:10;;;;;;;4.60;1.08;;;16.80;78.80;;;;;;5066356;28;20031;-69
2021/09/29 09:57:39;;;;;;;4.63;1.20;;;16.30;80.30;;;;;;5067666;28;20032;-69
2021/09/29 10:00:10;;;;;;;8.27;1.20;;;16.10;80.30;;;;;;5064173;28;20051;-69
2021/09/29 10:02:47;;;;;;;6.20;1.20;;;16.00;81.10;;;;;;5073718;28;20025;-69
2021/09/29 10:05:16;;;;;;;7.43;1.10;;;16.20;81.70;;;;;;5073870;28;20021;-69
2021/09/29 10:07:43;;;;;;;5.20;1.33;;;16.40;81.80;;;;;;5060175;28;20025;-69
2021/09/29 10:10:30;;;;;;;4.15;1.42;;;16.50;80.20;;;;;;5074551;28;20024;-69
2021/09/29 10:13:38;;;;;;;3.55;1.23;;;16.70;79.80;;;;;;5075278;28;20047;-69
2021/09/29 10:27:23;;;;;;;7.50;1.52;;;18.50;75.00;;;;;;5053928;28;20036;-69
2021/09/29 10:30:08;;;;;;;4.20;0.95;;;18.40;73.90;;;;;;5057696;28;20403;-69
2021/09/29 10:32:46;;;;;;;5.70;1.30;;;18.20;75.40;;;;;;5074914;28;20035;-69
2021/09/29 10:35:31;;;;;;;4.85;1.10;;;18.10;75.20;;;;;;5063255;28;20329;-68
2021/09/29 10:43:24;;;;;;;4.63;1.25;;;17.10;77.00;;;;;;5065978;28;20032;-69
2021/09/29 10:49:24;;;;;;;6.28;2.33;;;17.10;78.50;;;;;;5047632;28;20037;-69
2021/09/29 11:30:21;;;;;;;4.40;1.08;;;20.60;67.80;;;;;;5077026;28;20031;-69
2021/09/29 11:33:35;;;;;;;4.60;1.23;;;21.10;67.80;;;;;;5065912;28;20420;-69
2021/09/29 12:09:10;;;;;;;7.03;1.60;;;19.50;69.80;;;;;;5067834;28;20499;-69
2021/09/29 12:14:16;;;;;;;7.35;0.93;;;20.20;68.30;;;;;;5059622;28;20040;-68
2021/09/29 12:16:43;;;;;;;;;;;20.10;68.20;;;;;;5066269;28;20021;-69
2021/09/29 12:19:22;;;;;;;3.45;1.02;;;19.80;69.50;;;;;;5065571;28;20225;-69
2021/09/29 12:21:50;;;;;;;2.78;0.70;;;20.30;68.40;;;;;;5057604;28;20404;-69
2021/09/29 12:24:32;;;;;;;5.00;1.50;;;20.30;67.80;;;;;;5067922;28;20036;-68
2021/09/29 12:27:00;;;;;;;3.35;0.93;;;20.30;67.40;;;;;;5068251;28;20036;-68
2021/09/29 12:29:38;;;;;;;3.33;0.70;;;19.50;68.60;;;;;;5064198;28;20040;-70
2021/09/29 12:35:33;;;;;;;3.92;0.80;;;19.00;70.70;;;;;;5055882;28;20495;-69
2021/09/29 12:38:01;;;;;;;3.10;1.05;;;19.70;70.30;;;;;;5068354;28;20082;-69
2021/09/29 12:40:30;;;;;;;5.25;1.25;;;19.60;69.00;;;;;;5074924;28;20024;-69
2021/09/29 12:43:01;;;;;;;3.90;1.40;;;19.60;69.60;;;;;;5076111;28;20033;-69
2021/09/29 12:45:34;;;;;;;6.22;0.90;;;20.00;69.50;;;;;;5065789;28;20025;-68
2021/09/29 12:48:01;;;;;;;6.55;0.88;;;20.20;67.60;;;;;;5063183;28;20410;-68
2021/09/29 12:51:14;;;;;;;7.07;1.00;;;19.60;69.10;;;;;;5065460;28;20413;-67
2021/09/29 12:58:22;;;;;;;5.03;1.08;;;19.70;68.80;;;;;;5070633;28;20057;-68
2021/09/29 13:00:48;;;;;;;3.28;1.00;;;19.70;68.70;;;;;;5072199;28;20133;-68
2021/09/29 13:03:14;;;;;;;4.47;1.08;;;19.30;68.80;;;;;;5071925;28;20082;-68
2021/09/29 13:05:41;;;;;;;4.93;0.98;;;19.30;70.20;;;;;;5068933;28;20497;-70
2021/09/29 13:08:07;;;;;;;2.70;0.90;;;19.50;70.10;;;;;;5061836;28;20287;-68
2021/09/29 13:10:32;;;;;;;4.25;1.00;;;19.80;69.60;;;;;;5060783;28;20116;-69
2021/09/29 13:12:58;;;;;;;3.97;0.90;;;19.70;69.80;;;;;;5055954;28;20059;-69
2021/09/29 13:15:24;;;;;;;4.38;0.98;;;19.20;70.40;;;;;;5075914;28;20404;-69
2021/09/29 13:17:52;;;;;;;5.93;1.08;;;19.40;69.40;;;;;;5075733;28;20040;-68
2021/09/29 13:20:21;;;;;;;3.10;1.00;;;19.90;70.00;;;;;;5074762;28;20433;-68
2021/09/29 13:23:03;;;;;;;3.33;0.90;;;20.20;69.30;;;;;;5075788;28;20016;-68
2021/09/29 13:36:39;;;;;;;3.13;1.02;;;18.10;72.30;;;;;;5056912;28;20139;-68
2021/09/29 13:39:06;;;;;;;;;;;17.60;73.80;;;;;;5064542;28;20016;-69
2021/09/29 13:41:32;;;;;;;5.95;1.33;;;17.30;75.70;;;;;;5074471;28;20006;-68
2021/09/29 13:43:58;;;;;;;4.63;1.02;;;17.10;77.20;;;;;;5075400;28;20059;-67
2021/09/29 13:46:23;;;;;;;3.88;0.90;;;16.90;78.60;;;;;;5074732;28;20099;-68
2021/09/29 13:48:52;;;;;;;4.32;1.10;;;16.70;80.90;;;;;;5064761;28;20359;-68
2021/09/29 13:51:18;;;;;;;3.97;1.00;;;16.30;83.00;;;;;;5071337;28;20032;-68
2021/09/29 13:53:44;;;;;;;5.10;1.08;;;16.10;84.90;;;;;;5064026;28;20416;-68
2021/09/29 13:56:12;;;;;;;4.53;1.10;;;16.10;84.40;;;;;;5068990;28;20020;-68
2021/09/29 13:58:58;;;;;;;5.50;1.73;;;16.20;85.20;;;;;;5073025;28;20016;-68
2021/09/29 14:01:57;;;;;;;4.68;1.08;;;16.50;84.70;;;;;;5075253;28;20033;-68
2021/09/29 14:29:23;;;;;;;6.93;1.63;;;15.90;86.70;;;;;;5059027;28;20090;-69
2021/09/29 14:34:24;;;;;;;5.93;1.33;;;14.70;95.00;;;;;;5060145;28;20386;-71
2021/09/29 14:36:50;;;;;;;6.07;1.60;;;13.50;97.40;;;;;;5078896;28;20025;-69
2021/09/29 14:39:17;;;;;;;10.05;4.32;;;12.90;97.60;;;;;;5069780;28;20104;-70
2021/09/29 14:41:43;;;;;;;10.75;2.95;;;12.60;97.40;;;;;;5069163;28;20035;-70
2021/09/29 14:44:09;;;;;;;14.85;4.78;;;12.50;97.30;;;;;;5058676;28;20060;-71
2021/09/29 14:46:35;;;;;;;16.92;5.47;;;12.40;97.40;;;;;;5069023;28;20055;-71
2021/09/29 14:49:01;;;;;;;9.15;2.35;;;12.30;97.40;;;;;;5059925;28;20039;-71
2021/09/29 14:51:26;;;;;;;8.38;2.42;;;12.30;98.00;;;;;;5063462;28;20467;-71
2021/09/29 14:53:55;;;;;;;8.85;3.45;;;12.20;97.80;;;;;;5077849;28;20033;-70
2021/09/29 14:56:24;;;;;;;8.90;2.20;;;12.10;98.00;;;;;;5065084;28;20036;-70
2021/09/29 14:58:51;;;;;;;2.85;1.30;;;11.90;98.00;;;;;;5074788;28;20055;-70
2021/09/29 15:01:18;;;;;;;4.10;1.50;;;11.80;97.90;;;;;;5064933;28;20025;-71
2021/09/29 15:03:46;;;;;;;7.03;1.83;;;11.60;97.50;;;;;;5083012;28;20025;-71
2021/09/29 15:06:12;;;;;;;4.93;1.40;;;11.50;97.00;;;;;;5067888;28;20120;-71
2021/09/29 15:08:41;;;;;;;3.95;1.30;;;11.40;96.80;;;;;;5072591;28;20111;-72
2021/09/29 15:11:08;;;;;;;3.10;1.50;;;11.30;96.60;;;;;;5068518;28;20024;-72
2021/09/29 15:13:40;;;;;;;4.15;1.73;;;11.30;96.70;;;;;;5062817;28;20035;-72
2021/09/29 15:16:31;;;;;;;4.47;1.20;;;11.30;96.30;;;;;;5067769;28;20103;-71
2021/09/29 15:21:45;;;;;;;6.97;2.20;;;11.30;97.10;;;;;;5063159;28;20079;-71
2021/09/29 15:24:39;;;;;;;17.40;5.72;;;11.10;97.40;;;;;;5067047;28;20029;-72
2021/09/29 15:49:09;;;;;;;6.22;2.67;;;10.70;97.60;;;;;;5055313;28;20064;-71
2021/09/29 15:51:44;;;;;;;4.25;2.25;;;10.70;98.00;;;;;;5074915;28;20039;-72
2021/09/29 15:54:21;;;;;;;8.20;1.70;;;10.70;97.80;;;;;;5077048;28;20408;-72
2021/09/29 15:59:59;;;;;;;5.20;2.10;;;10.70;97.90;;;;;;5029291;28;20025;-72
2021/09/29 16:05:11;;;;;;;4.68;1.30;;;10.70;97.80;;;;;;5051073;28;20043;-71
2021/09/29 16:07:49;;;;;;;4.85;2.00;;;10.70;98.00;;;;;;5073060;28;20075;-72
2021/09/29 16:23:51;;;;;;;5.97;1.58;;;10.50;98.00;;;;;;5067623;28;20110;-71
2021/09/29 16:31:47;;;;;;;3.33;1.40;;;10.40;98.00;;;;;;5056441;28;20035;-71
2021/09/29 16:34:23;;;;;;;5.60;1.73;;;10.40;98.00;;;;;;5069201;28;20036;-71
2021/09/29 16:36:52;;;;;;;2.40;1.30;;;10.30;98.00;;;;;;5073357;28;20017;-71
2021/09/29 16:39:19;;;;;;;4.65;1.40;;;10.30;98.00;;;;;;5074026;28;20021;-71